Language selection

Weather shortcuts

Lake Melville: Past 24 Hour Conditions

 

Mary's Harbour

05:30 PM NDT 29 May 2024
Disclaimer

This table is a summary of hourly weather conditions for the past 24 hours.
Please note that these observations might not always be representative of weather conditions over their associated marine area.

Date / Time
(NDT)
Wind(knots) Conditions Visibility(km) Pressure(kPa) Air tempC) Relative humidity(%) Dew pointC)
29 May 2024
17:30 ENE 11 Cloudy 16 100.9 7 86 5
16:30 ENE 5 Cloudy 16 100.9 10 84 7
15:30 ENE 6 Cloudy 16 100.9 9 84 7
14:30 ENE 9 Cloudy 16 100.9 10 86 7
13:30 ENE 6 Cloudy 16 100.9 11 84 9
12:30 ESE 6 Cloudy 16 100.9 13 82 10
11:30 S 8 Cloudy 16 100.9 11 85 9
10:30 SE 8 Cloudy 16 100.9 10 90 9
9:30 SSE 5 Cloudy 16 100.9 8 94 7
8:30 SSE 4 Cloudy 16 100.9 7 94 6
7:30 S 8 Cloudy 16 100.9 7 93 6
6:30 S 12 Cloudy 16 100.9 7 95 7
5:30 S 13 gusts 19 Cloudy 16 100.9 7 95 7
4:30 S 14 gusts 19 Cloudy 16 100.9 7 95 7
3:30 S 11 gusts 17 Cloudy 16 100.9 7 95 7
2:30 S 13 gusts 20 Cloudy 16 100.9 8 94 7
1:30 S 12 gusts 22 Cloudy 16 101.0 9 93 8
0:30 S 16 gusts 23 Cloudy 16 101.0 11 81 8
28 May 2024
23:30 S 10 Light Rain 16 101.1 10 85 8
22:30 S 6 gusts 18 Light Rain 16 101.1 12 80 9
21:30 S 11 gusts 17 Light Rain 16 101.1 14 73 9
20:30 SSE 8 Light Rain 16 101.2 12 68 6
19:30 S 8 Cloudy 16 101.2 12 61 5
18:30 S 11 Cloudy 16 101.3 13 57 5
17:30 S 10 gusts 18 Cloudy 16 101.3 13 56 4

Zoom-in to make a selection

Map of Atlantic - Labrador marine weather areas Kangiqsualujjuaq Airport Cape Kakkiviak Cape Kiglapait Cartwright Airport CFB Goose Bay Hopedale Mary's Harbour Nain Airport Makkovik Airport Saglek Tukialik Bay
Legend:
buoy Buoy
land station Land Station

Atlantic - Labrador Area

Another Region

Features

New Predicting and Alerting Coastal Flooding Program

Find out about coastal flooding coverage, forecasts and warnings in your region

Date modified: